createdAt,value
2023-12-08T00:01:24.346Z,9.57
2023-12-08T00:03:52.340Z,11.32
2023-12-08T00:06:23.714Z,12.98
2023-12-08T00:08:50.571Z,10.52
2023-12-08T00:11:18.420Z,10.93
2023-12-08T00:13:48.180Z,11.88
2023-12-08T00:16:18.069Z,9.45
2023-12-08T00:18:48.562Z,13.23
2023-12-08T00:21:18.977Z,12.65
2023-12-08T00:23:46.010Z,19.38
2023-12-08T00:26:13.637Z,17.80
2023-12-08T00:28:45.649Z,13.73
2023-12-08T00:31:15.379Z,17.15
2023-12-08T00:33:42.662Z,15.20
2023-12-08T00:36:20.473Z,15.55
2023-12-08T00:38:53.722Z,18.85
2023-12-08T00:41:20.831Z,15.02
2023-12-08T00:43:48.635Z,20.17
2023-12-08T00:46:26.701Z,14.77
2023-12-08T00:48:56.462Z,16.77
2023-12-08T00:51:23.581Z,16.38
2023-12-08T00:53:50.208Z,17.15
2023-12-08T00:56:16.765Z,17.45
2023-12-08T00:58:43.279Z,15.18
2023-12-08T01:01:11.015Z,14.95
2023-12-08T01:03:38.049Z,13.02
2023-12-08T01:06:04.770Z,10.13
2023-12-08T01:08:31.381Z,12.55
2023-12-08T01:10:58.136Z,11.00
2023-12-08T01:13:24.642Z,8.50
2023-12-08T01:15:51.198Z,9.63
2023-12-08T01:18:18.274Z,8.57
2023-12-08T01:20:44.889Z,9.20
2023-12-08T01:23:11.415Z,7.72
2023-12-08T01:25:38.163Z,8.65
2023-12-08T01:28:04.911Z,8.52
2023-12-08T01:30:31.454Z,9.20
2023-12-08T01:32:58.320Z,7.00
2023-12-08T01:35:24.939Z,7.65
2023-12-08T01:37:51.462Z,7.25
2023-12-08T01:40:18.053Z,6.90
2023-12-08T01:42:45.727Z,6.15
2023-12-08T01:45:12.701Z,7.15
2023-12-08T01:47:39.340Z,5.97
2023-12-08T01:50:06.437Z,4.65
2023-12-08T01:52:32.983Z,5.88
2023-12-08T01:55:00.022Z,7.43
2023-12-08T01:57:26.744Z,6.28
2023-12-08T01:59:55.168Z,4.93
2023-12-08T02:02:22.506Z,5.28
2023-12-08T02:04:49.663Z,4.53
2023-12-08T02:07:16.290Z,4.20
2023-12-08T02:09:42.812Z,4.25
2023-12-08T02:12:10.327Z,5.55
2023-12-08T02:14:37.008Z,3.65
2023-12-08T02:17:17.760Z,6.60
2023-12-08T02:19:44.484Z,3.85
2023-12-08T02:22:11.059Z,6.45
2023-12-08T02:24:37.607Z,4.60
2023-12-08T02:27:04.730Z,4.22
2023-12-08T02:29:31.331Z,5.40
2023-12-08T02:32:14.049Z,5.38
2023-12-08T02:34:41.383Z,4.38
2023-12-08T02:37:07.999Z,5.75
2023-12-08T02:39:35.072Z,4.95
2023-12-08T02:42:02.726Z,6.80
2023-12-08T02:44:29.315Z,5.00
2023-12-08T02:46:55.980Z,4.30
2023-12-08T02:49:22.657Z,3.90
2023-12-08T02:51:49.258Z,3.42
2023-12-08T02:54:16.163Z,3.28
2023-12-08T02:56:42.765Z,3.80
2023-12-08T02:59:09.416Z,5.05
2023-12-08T03:01:35.957Z,3.65
2023-12-08T03:04:03.010Z,5.20
2023-12-08T03:06:29.653Z,6.10
2023-12-08T03:08:56.575Z,4.88
2023-12-08T03:11:23.169Z,4.15
2023-12-08T03:13:49.743Z,4.38
2023-12-08T03:16:17.234Z,3.85
2023-12-08T03:18:44.036Z,6.45
2023-12-08T03:21:20.760Z,4.82
2023-12-08T03:23:47.385Z,6.03
2023-12-08T03:26:13.985Z,4.78
2023-12-08T03:28:40.587Z,4.57
2023-12-08T03:31:07.145Z,6.10
2023-12-08T03:33:33.708Z,4.95
2023-12-08T03:36:00.972Z,4.78
2023-12-08T03:38:27.940Z,4.72
2023-12-08T03:40:54.483Z,3.97
2023-12-08T03:43:21.072Z,4.75
2023-12-08T03:45:47.614Z,3.97
2023-12-08T03:48:15.316Z,5.47
2023-12-08T03:50:42.097Z,5.13
2023-12-08T03:53:08.704Z,4.43
2023-12-08T03:55:35.303Z,4.55
2023-12-08T03:58:01.882Z,6.35
2023-12-08T04:00:29.019Z,4.10
2023-12-08T04:02:55.994Z,4.03
2023-12-08T04:05:22.765Z,4.82
2023-12-08T04:07:49.393Z,4.32
2023-12-08T04:10:15.974Z,4.88
2023-12-08T04:12:42.506Z,6.28
2023-12-08T04:15:09.495Z,4.10
2023-12-08T04:17:36.439Z,4.15
2023-12-08T04:20:03.213Z,3.92
2023-12-08T04:22:29.772Z,5.30
2023-12-08T04:24:56.438Z,4.00
2023-12-08T04:27:23.022Z,5.78
2023-12-08T04:29:49.682Z,5.15
2023-12-08T04:32:16.272Z,5.03
2023-12-08T04:34:42.903Z,5.63
2023-12-08T04:37:09.484Z,4.55
2023-12-08T04:39:36.030Z,5.53
2023-12-08T04:42:02.806Z,4.68
2023-12-08T04:44:29.875Z,5.70
2023-12-08T04:46:56.492Z,5.57
2023-12-08T04:49:23.166Z,4.60
2023-12-08T04:51:49.774Z,5.20
2023-12-08T04:54:16.363Z,4.78
2023-12-08T04:56:43.228Z,4.38
2023-12-08T04:59:10.367Z,4.88
2023-12-08T05:01:36.981Z,4.80
2023-12-08T05:04:06.645Z,5.10
2023-12-08T05:06:33.370Z,5.88
2023-12-08T05:09:00.015Z,5.43
2023-12-08T05:11:26.888Z,4.85
2023-12-08T05:13:53.710Z,6.38
2023-12-08T05:16:20.316Z,5.50
2023-12-08T05:18:47.122Z,5.18
2023-12-08T05:21:13.814Z,4.72
2023-12-08T05:23:40.487Z,4.72
2023-12-08T05:26:08.713Z,6.03
2023-12-08T05:28:35.307Z,7.03
2023-12-08T05:31:01.851Z,7.78
2023-12-08T05:33:28.719Z,6.57
2023-12-08T05:35:56.998Z,5.53
2023-12-08T05:38:24.961Z,5.15
2023-12-08T05:40:51.595Z,5.63
2023-12-08T05:43:18.233Z,5.90
2023-12-08T05:45:44.749Z,6.85
2023-12-08T05:48:11.483Z,4.90
2023-12-08T05:50:39.418Z,5.30
2023-12-08T05:53:06.081Z,6.80
2023-12-08T05:55:32.652Z,10.23
2023-12-08T05:57:59.230Z,4.70
2023-12-08T06:00:25.857Z,5.57
2023-12-08T06:02:52.602Z,6.63
2023-12-08T06:05:19.809Z,5.55
2023-12-08T06:07:46.428Z,7.20
2023-12-08T06:10:13.216Z,7.95
2023-12-08T06:12:40.511Z,6.40
2023-12-08T06:15:08.089Z,5.40
2023-12-08T06:17:34.906Z,7.15
2023-12-08T06:20:01.822Z,6.78
2023-12-08T06:22:28.417Z,5.75
2023-12-08T06:24:55.018Z,7.50
2023-12-08T06:27:21.624Z,6.45
2023-12-08T06:29:48.266Z,6.03
2023-12-08T06:32:14.833Z,7.00
2023-12-08T06:34:41.449Z,5.25
2023-12-08T06:37:08.143Z,7.25
2023-12-08T06:39:34.714Z,8.40
2023-12-08T06:42:01.347Z,6.53
2023-12-08T06:44:28.982Z,6.43
2023-12-08T06:47:06.454Z,7.45
2023-12-08T06:49:33.218Z,5.90
2023-12-08T06:51:59.862Z,6.82
2023-12-08T06:54:30.473Z,8.45
2023-12-08T06:56:58.040Z,8.80
2023-12-08T06:59:28.402Z,9.50
2023-12-08T07:01:58.795Z,9.32
2023-12-08T07:04:30.840Z,9.15
2023-12-08T07:06:57.494Z,7.65
2023-12-08T07:09:24.341Z,7.57
2023-12-08T07:11:50.987Z,7.88
2023-12-08T07:14:18.173Z,7.65
2023-12-08T07:16:45.145Z,10.07
2023-12-08T07:19:12.230Z,7.50
2023-12-08T07:21:44.846Z,6.07
2023-12-08T07:24:12.113Z,9.68
2023-12-08T07:26:38.722Z,6.90
2023-12-08T07:29:06.542Z,7.90
2023-12-08T07:31:33.114Z,7.55
2023-12-08T07:33:59.831Z,7.72
2023-12-08T07:36:26.505Z,7.95
2023-12-08T07:38:53.120Z,6.85
2023-12-08T07:41:20.049Z,9.50
2023-12-08T07:43:46.695Z,7.18
2023-12-08T07:46:13.301Z,6.72
2023-12-08T07:48:39.992Z,7.90
2023-12-08T07:51:11.701Z,9.85
2023-12-08T07:53:38.440Z,8.15
2023-12-08T07:56:05.906Z,8.48
2023-12-08T07:58:32.542Z,9.15
2023-12-08T08:00:59.242Z,7.50
2023-12-08T08:03:26.975Z,10.23
2023-12-08T08:05:53.668Z,9.20
2023-12-08T08:08:20.699Z,7.22
2023-12-08T08:10:47.264Z,25.58
2023-12-08T08:13:13.974Z,10.68
2023-12-08T08:15:40.638Z,18.23
2023-12-08T08:18:07.829Z,7.63
2023-12-08T08:20:34.505Z,8.80
2023-12-08T08:23:03.015Z,9.00
2023-12-08T08:25:29.592Z,11.50
2023-12-08T08:27:56.137Z,10.40
2023-12-08T08:30:22.861Z,11.90
2023-12-08T08:32:50.850Z,9.45
2023-12-08T08:35:19.012Z,7.68
2023-12-08T08:37:46.501Z,10.95
2023-12-08T08:40:14.462Z,33.95
2023-12-08T08:42:41.092Z,56.55
2023-12-08T08:45:08.318Z,10.70
2023-12-08T08:47:35.096Z,22.58
2023-12-08T08:50:01.926Z,24.15
2023-12-08T08:52:28.583Z,22.98
2023-12-08T08:54:55.566Z,25.73
2023-12-08T08:57:22.224Z,21.58
2023-12-08T08:59:48.861Z,19.23
2023-12-08T09:02:16.105Z,20.70
2023-12-08T09:04:42.849Z,15.70
2023-12-08T09:07:09.538Z,12.23
2023-12-08T09:09:39.280Z,15.35
2023-12-08T09:12:08.712Z,12.50
2023-12-08T09:14:39.416Z,19.40
2023-12-08T09:17:06.781Z,20.52
2023-12-08T09:19:34.573Z,15.63
2023-12-08T09:22:01.574Z,11.32
2023-12-08T09:24:29.566Z,26.52
2023-12-08T09:26:56.175Z,18.42
2023-12-08T09:29:24.089Z,17.05
2023-12-08T09:31:50.831Z,11.05
2023-12-08T09:34:18.775Z,17.02
2023-12-08T09:37:24.691Z,13.18
2023-12-08T09:39:38.559Z,13.23
2023-12-08T09:42:10.917Z,16.00
2023-12-08T09:44:37.636Z,19.23
2023-12-08T09:47:05.233Z,12.18
2023-12-08T09:49:38.486Z,12.02
2023-12-08T09:52:05.105Z,11.68
2023-12-08T09:54:32.467Z,10.80
2023-12-08T09:56:59.840Z,12.48
2023-12-08T09:59:30.434Z,16.05
2023-12-08T10:01:58.135Z,11.65
2023-12-08T10:04:29.528Z,9.23
2023-12-08T10:06:59.314Z,12.13
2023-12-08T10:09:25.937Z,12.70
2023-12-08T10:11:52.597Z,11.30
2023-12-08T10:14:23.920Z,9.73
2023-12-08T10:16:50.495Z,9.43
2023-12-08T10:19:19.470Z,9.98
2023-12-08T10:21:46.716Z,11.20
2023-12-08T10:24:13.319Z,8.88
2023-12-08T10:26:43.246Z,11.18
2023-12-08T10:29:11.895Z,11.63
2023-12-08T10:31:42.234Z,8.68
2023-12-08T10:34:08.897Z,11.30
2023-12-08T10:36:37.932Z,12.20
2023-12-08T10:39:04.620Z,10.32
2023-12-08T10:41:31.458Z,11.25
2023-12-08T10:43:58.062Z,9.77
2023-12-08T10:46:24.698Z,11.52
2023-12-08T10:48:51.658Z,9.73
2023-12-08T10:51:18.326Z,10.85
2023-12-08T10:53:45.523Z,9.48
2023-12-08T10:56:14.252Z,10.50
2023-12-08T10:58:44.406Z,12.23
2023-12-08T11:01:14.269Z,9.85
2023-12-08T11:03:43.782Z,12.45
2023-12-08T11:06:23.328Z,10.68
2023-12-08T11:08:50.632Z,12.70
2023-12-08T11:11:17.234Z,10.60
2023-12-08T11:13:48.153Z,12.35
2023-12-08T11:16:59.872Z,11.55
2023-12-08T11:19:27.608Z,11.70
2023-12-08T11:21:55.913Z,12.15
2023-12-08T11:24:22.846Z,10.93
2023-12-08T11:27:19.443Z,12.63
2023-12-08T11:29:53.870Z,10.65
2023-12-08T11:32:41.822Z,12.27
2023-12-08T11:35:11.833Z,10.60
2023-12-08T11:37:38.900Z,9.73
2023-12-08T11:40:08.583Z,10.68
2023-12-08T11:42:35.499Z,10.20
2023-12-08T11:45:02.182Z,10.73
2023-12-08T11:47:29.519Z,10.70
2023-12-08T11:49:56.732Z,13.38
2023-12-08T11:52:26.847Z,12.60
2023-12-08T11:55:31.171Z,11.57
2023-12-08T11:58:05.570Z,14.77
2023-12-08T12:00:34.321Z,13.02
2023-12-08T12:03:10.116Z,11.52
2023-12-08T12:05:37.545Z,12.40
2023-12-08T12:08:04.327Z,19.33
2023-12-08T12:10:37.725Z,14.75
2023-12-08T12:13:05.676Z,14.27
2023-12-08T12:15:34.725Z,12.20
2023-12-08T12:18:02.368Z,13.85
2023-12-08T12:20:29.826Z,15.65
2023-12-08T12:22:57.438Z,15.82
2023-12-08T12:25:26.883Z,12.05
2023-12-08T12:27:54.349Z,13.57
2023-12-08T12:30:21.483Z,13.63
2023-12-08T12:32:51.609Z,11.20
2023-12-08T12:35:18.390Z,13.73
2023-12-08T12:37:45.112Z,13.20
2023-12-08T12:40:11.981Z,12.93
2023-12-08T12:42:43.199Z,12.45
2023-12-08T12:45:28.569Z,13.20
2023-12-08T12:48:10.997Z,14.80
2023-12-08T12:50:53.954Z,13.27
2023-12-08T12:53:20.590Z,14.38
2023-12-08T12:55:47.974Z,16.65
2023-12-08T12:58:21.507Z,13.80
2023-12-08T13:00:48.726Z,13.35
2023-12-08T13:03:18.678Z,14.98
2023-12-08T13:05:47.090Z,20.60
2023-12-08T13:08:16.863Z,14.85
2023-12-08T13:10:44.981Z,23.67
2023-12-08T13:16:10.143Z,13.77
2023-12-08T13:18:39.416Z,15.15
2023-12-08T13:21:06.581Z,18.45
2023-12-08T13:23:34.199Z,14.82
2023-12-08T13:26:02.259Z,13.82
2023-12-08T13:28:28.880Z,15.40
2023-12-08T13:30:55.612Z,14.00
2023-12-08T13:33:23.482Z,18.70
2023-12-08T13:35:50.303Z,15.68
2023-12-08T13:38:16.900Z,15.05
2023-12-08T13:40:44.949Z,15.38
2023-12-08T13:43:12.860Z,13.88
2023-12-08T13:45:40.461Z,15.57
2023-12-08T13:48:08.701Z,17.33
2023-12-08T13:50:43.656Z,17.77
2023-12-08T13:53:16.965Z,14.63
2023-12-08T13:55:45.275Z,15.23
2023-12-08T13:58:22.552Z,14.70
2023-12-08T14:00:49.212Z,14.38
2023-12-08T14:03:16.345Z,14.98
2023-12-08T14:05:43.921Z,12.90
2023-12-08T14:08:11.066Z,36.42
2023-12-08T14:10:40.038Z,18.73
2023-12-08T14:13:06.633Z,17.05
2023-12-08T14:15:33.461Z,17.50
2023-12-08T14:18:00.176Z,19.42
2023-12-08T14:20:27.082Z,17.63
2023-12-08T14:22:53.770Z,16.50
2023-12-08T14:25:20.784Z,19.95
2023-12-08T14:27:47.375Z,16.83
2023-12-08T14:30:29.438Z,18.77
2023-12-08T14:32:59.768Z,24.25
2023-12-08T14:35:30.974Z,18.00
2023-12-08T14:38:08.166Z,16.15
2023-12-08T14:40:50.743Z,17.00
2023-12-08T14:43:22.380Z,18.45
2023-12-08T14:45:49.229Z,17.33
2023-12-08T14:48:17.148Z,16.25
2023-12-08T14:50:44.839Z,18.52
2023-12-08T14:53:12.425Z,17.85
2023-12-08T14:55:39.377Z,16.48
2023-12-08T14:58:06.109Z,17.15
2023-12-08T15:00:33.367Z,18.48
2023-12-08T15:03:00.341Z,17.60
2023-12-08T15:05:27.021Z,19.45
2023-12-08T15:07:53.985Z,19.48
2023-12-08T15:10:20.565Z,18.70
2023-12-08T15:12:48.328Z,19.02
2023-12-08T15:15:16.042Z,18.88
2023-12-08T15:17:48.268Z,16.50
2023-12-08T15:20:15.645Z,15.02
2023-12-08T15:22:42.328Z,16.40
2023-12-08T15:25:09.292Z,19.33
2023-12-08T15:27:36.198Z,16.75
2023-12-08T15:30:03.631Z,14.90
2023-12-08T15:32:30.362Z,16.98
2023-12-08T15:34:57.096Z,15.40
2023-12-08T15:37:23.915Z,16.00
2023-12-08T15:39:52.236Z,15.68
2023-12-08T15:42:19.807Z,19.40
2023-12-08T15:44:46.496Z,17.05
2023-12-08T15:47:13.131Z,17.05
2023-12-08T15:49:43.562Z,18.10
2023-12-08T15:52:12.858Z,16.35
2023-12-08T15:54:41.960Z,17.23
2023-12-08T15:57:10.582Z,19.27
2023-12-08T15:59:44.634Z,20.48
2023-12-08T16:02:39.477Z,15.75
2023-12-08T16:05:07.693Z,17.25
2023-12-08T16:07:34.330Z,40.58
2023-12-08T16:10:01.217Z,23.45
2023-12-08T16:12:28.190Z,16.00
2023-12-08T16:14:54.988Z,17.35
2023-12-08T16:17:21.672Z,15.90
2023-12-08T16:19:48.622Z,21.67
2023-12-08T16:22:16.283Z,18.95
2023-12-08T16:24:49.073Z,17.35
2023-12-08T16:27:16.670Z,16.48
2023-12-08T16:29:45.642Z,18.63
2023-12-08T16:32:12.898Z,18.13
2023-12-08T16:34:41.571Z,18.67
2023-12-08T16:37:09.434Z,16.98
2023-12-08T16:39:36.227Z,16.30
2023-12-08T16:42:03.103Z,21.27
2023-12-08T16:44:31.056Z,15.43
2023-12-08T16:46:57.670Z,15.13
2023-12-08T16:49:25.432Z,14.32
2023-12-08T16:51:52.152Z,15.10
2023-12-08T16:54:18.805Z,17.25
2023-12-08T16:56:45.717Z,15.65
2023-12-08T16:59:12.432Z,17.77
2023-12-08T17:01:39.099Z,17.35
2023-12-08T17:04:07.775Z,17.20
2023-12-08T17:06:34.670Z,15.05
2023-12-08T17:09:01.520Z,15.93
2023-12-08T17:11:29.475Z,16.23
2023-12-08T17:13:56.070Z,14.38
2023-12-08T17:16:23.087Z,15.05
2023-12-08T17:18:53.753Z,13.95
2023-12-08T17:21:20.552Z,14.27
2023-12-08T17:24:10.837Z,17.63
2023-12-08T17:26:47.314Z,17.90
2023-12-08T17:29:14.082Z,16.85
2023-12-08T17:31:41.408Z,17.45
2023-12-08T17:34:16.267Z,16.90
2023-12-08T17:40:02.207Z,16.35
2023-12-08T17:42:28.937Z,19.40
2023-12-08T17:44:56.017Z,16.77
2023-12-08T17:47:22.614Z,16.83
2023-12-08T17:49:51.011Z,17.70
2023-12-08T17:52:21.970Z,16.80
2023-12-08T17:54:49.826Z,18.42
2023-12-08T17:57:16.733Z,17.48
2023-12-08T17:59:43.727Z,18.35
2023-12-08T18:02:10.385Z,17.55
2023-12-08T18:04:42.721Z,16.65
2023-12-08T18:07:09.362Z,19.38
2023-12-08T18:09:39.324Z,16.42
2023-12-08T18:12:09.433Z,20.20
2023-12-08T18:14:36.528Z,18.40
2023-12-08T18:17:03.959Z,17.58
2023-12-08T18:19:31.699Z,18.42
2023-12-08T18:21:58.564Z,16.42
2023-12-08T18:24:25.427Z,19.23
2023-12-08T18:26:54.418Z,16.15
2023-12-08T18:29:21.431Z,18.33
2023-12-08T18:31:48.947Z,16.65
2023-12-08T18:34:17.726Z,18.55
2023-12-08T18:36:44.540Z,18.77
2023-12-08T18:39:12.051Z,17.60
2023-12-08T18:41:38.716Z,17.52
2023-12-08T18:44:08.169Z,18.02
2023-12-08T18:46:34.840Z,17.73
2023-12-08T18:49:02.375Z,18.13
2023-12-08T18:51:29.480Z,20.02
2023-12-08T18:53:56.821Z,18.20
2023-12-08T18:56:23.904Z,19.42
2023-12-08T18:58:51.676Z,19.42
2023-12-08T19:01:18.487Z,17.88
2023-12-08T19:03:45.337Z,19.52
2023-12-08T19:06:12.651Z,18.88
2023-12-08T19:08:39.900Z,19.02
2023-12-08T19:11:06.649Z,19.98
2023-12-08T19:13:33.263Z,16.67
2023-12-08T19:15:59.922Z,18.50
2023-12-08T19:18:26.596Z,19.73
2023-12-08T19:20:53.456Z,19.55
2023-12-08T19:23:20.581Z,18.42
2023-12-08T19:25:47.144Z,18.73
2023-12-08T19:28:13.931Z,21.25
2023-12-08T19:30:40.573Z,20.40
2023-12-08T19:33:08.710Z,22.20
2023-12-08T19:35:35.698Z,20.10
2023-12-08T19:38:02.995Z,20.20
2023-12-08T19:40:29.665Z,21.30
2023-12-08T19:42:56.389Z,19.80
2023-12-08T19:45:23.033Z,19.58
2023-12-08T19:47:49.869Z,20.83
2023-12-08T19:50:16.609Z,22.95
2023-12-08T19:52:43.212Z,19.70
2023-12-08T19:55:10.499Z,19.50
2023-12-08T19:57:37.102Z,21.90
2023-12-08T20:00:05.950Z,24.05
2023-12-08T20:02:36.308Z,22.00
2023-12-08T20:05:03.522Z,23.92
2023-12-08T20:07:30.258Z,23.48
2023-12-08T20:09:57.068Z,20.33
2023-12-08T20:12:24.903Z,23.27
2023-12-08T20:14:51.546Z,22.35
2023-12-08T20:17:22.831Z,23.85
2023-12-08T20:19:52.604Z,23.67
2023-12-08T20:22:21.778Z,23.58
2023-12-08T20:24:48.629Z,25.83
2023-12-08T20:27:15.402Z,26.63
2023-12-08T20:29:42.045Z,23.50
2023-12-08T20:32:08.844Z,25.77
2023-12-08T20:34:36.641Z,24.98
2023-12-08T20:37:03.457Z,23.52
2023-12-08T20:39:30.230Z,26.55
2023-12-08T20:41:56.860Z,26.42
2023-12-08T20:44:23.500Z,24.98
2023-12-08T20:46:50.368Z,27.08
2023-12-08T20:49:19.238Z,28.33
2023-12-08T20:51:45.956Z,24.88
2023-12-08T20:54:13.161Z,26.67
2023-12-08T20:56:40.579Z,27.55
2023-12-08T20:59:08.304Z,27.50
2023-12-08T21:01:35.296Z,29.42
2023-12-08T21:04:01.940Z,27.35
2023-12-08T21:06:28.671Z,24.27
2023-12-08T21:08:55.839Z,26.58
2023-12-08T21:11:22.530Z,26.67
2023-12-08T21:13:49.442Z,28.08
2023-12-08T21:16:16.071Z,28.13
2023-12-08T21:18:43.192Z,29.67
2023-12-08T21:21:10.618Z,28.63
2023-12-08T21:23:39.188Z,37.10
2023-12-08T21:26:05.892Z,29.52
2023-12-08T21:28:32.891Z,28.50
2023-12-08T21:30:59.476Z,31.67
2023-12-08T21:33:26.216Z,25.35
2023-12-08T21:35:53.126Z,29.63
2023-12-08T21:38:19.874Z,28.70
2023-12-08T21:40:46.861Z,29.35
2023-12-08T21:43:13.932Z,32.70
2023-12-08T21:45:40.644Z,31.50
2023-12-08T21:48:08.163Z,29.30
2023-12-08T21:50:34.832Z,29.58
2023-12-08T21:53:01.877Z,29.17
2023-12-08T21:55:28.815Z,32.20
2023-12-08T21:57:55.409Z,31.08
2023-12-08T22:00:23.946Z,32.03
2023-12-08T22:02:50.651Z,32.17
2023-12-08T22:05:17.473Z,31.75
2023-12-08T22:07:44.141Z,28.40
2023-12-08T22:10:11.796Z,27.95
2023-12-08T22:12:38.541Z,28.70
2023-12-08T22:15:05.662Z,32.90
2023-12-08T22:17:32.592Z,34.17
2023-12-08T22:20:00.416Z,30.08
2023-12-08T22:22:27.360Z,27.95
2023-12-08T22:24:53.901Z,29.05
2023-12-08T22:27:21.236Z,31.35
2023-12-08T22:29:48.762Z,28.23
2023-12-08T22:32:15.357Z,29.70
2023-12-08T22:34:43.310Z,30.40
2023-12-08T22:37:10.347Z,32.13
2023-12-08T22:39:37.213Z,29.15
2023-12-08T22:42:04.111Z,28.38
2023-12-08T22:44:30.750Z,32.30
2023-12-08T22:46:57.327Z,29.25
2023-12-08T22:49:24.278Z,31.33
2023-12-08T22:51:58.372Z,29.95
2023-12-08T22:54:26.518Z,28.88
2023-12-08T22:56:53.631Z,29.23
2023-12-08T22:59:20.230Z,30.10
2023-12-08T23:01:46.853Z,31.15
2023-12-08T23:04:14.104Z,33.45
2023-12-08T23:06:41.674Z,32.55
2023-12-08T23:09:08.638Z,31.80
2023-12-08T23:11:35.247Z,30.88
2023-12-08T23:14:01.879Z,30.60
2023-12-08T23:16:29.125Z,32.40
2023-12-08T23:18:56.159Z,33.85
2023-12-08T23:21:22.884Z,33.85
2023-12-08T23:23:49.503Z,27.75
2023-12-08T23:26:16.119Z,30.83
2023-12-08T23:28:42.672Z,33.00
2023-12-08T23:31:09.712Z,30.92
2023-12-08T23:33:36.647Z,28.98
2023-12-08T23:36:03.682Z,32.15
2023-12-08T23:38:30.312Z,30.05
2023-12-08T23:40:56.944Z,29.52
2023-12-08T23:43:23.558Z,27.77
2023-12-08T23:45:50.440Z,28.58
2023-12-08T23:48:16.990Z,31.38
2023-12-08T23:50:44.426Z,27.95
2023-12-08T23:53:11.015Z,28.73
2023-12-08T23:55:37.630Z,28.13
2023-12-08T23:58:04.288Z,27.95
